Time;durP1;ratioP1;P1;durP2;ratioP2;P2;SDS_P1;SDS_P2;PMS_P1;PMS_P2;Temp;Humidity;BMP_temperature;BMP_pressure;BME280_temperature;BME280_humidity;BME280_pressure;Samples;Min_cycle;Max_cycle;Signal;HPM_P1;HPM_P2
2022/05/10 00:01:25;;;;;;;;;;;;;;;;;;5054470;28;19956;-44
2022/05/10 00:03:50;;;;;;;;;;;;;;;;;;5054532;28;19909;-44
2022/05/10 00:06:15;;;;;;;;;;;;;;;;;;5054399;28;19909;-45
2022/05/10 00:08:40;;;;;;;;;;;;;;;;;;5054396;28;19913;-44
2022/05/10 00:11:05;;;;;;;;;;;;;;;;;;5054391;28;19921;-45
2022/05/10 00:13:30;;;;;;;;;;;;;;;;;;5054733;28;20249;-45
2022/05/10 00:15:56;;;;;;;;;;;;;;;;;;5053397;28;19952;-44
2022/05/10 00:18:21;;;;;;;;;;;;;;;;;;5054431;28;20184;-44
2022/05/10 00:20:46;;;;;;;;;;;;;;;;;;5054658;28;19916;-44
2022/05/10 00:23:11;;;;;;;;;;;;;;;;;;5054183;28;19927;-44
2022/05/10 00:25:38;;;;;;;;;;;;;;;;;;5052751;28;19912;-44
2022/05/10 00:28:03;;;;;;;;;;;;;;;;;;5054482;28;19917;-45
2022/05/10 00:30:28;;;;;;;;;;;;;;;;;;5053941;28;19927;-44
2022/05/10 00:32:53;;;;;;;;;;;;;;;;;;5054530;28;19909;-44
2022/05/10 00:35:18;;;;;;;;;;;;;;;;;;5054429;28;19913;-44
2022/05/10 00:37:43;;;;;;;;;;;;;;;;;;5057732;28;19931;-43
2022/05/10 00:40:09;;;;;;;;;;;;;;;;;;5055628;28;20011;-43
2022/05/10 00:42:34;;;;;;;;;;;;;;;;;;5058117;28;20012;-43
2022/05/10 00:44:59;;;;;;;;;;;;;;;;;;5057859;28;20007;-44
2022/05/10 00:47:24;;;;;;;;;;;;;;;;;;5057825;28;20311;-43
2022/05/10 00:49:49;;;;;;;;;;;;;;;;;;5057856;28;19909;-44
2022/05/10 00:52:14;;;;;;;;;;;;;;;;;;5057870;28;19909;-44
2022/05/10 00:54:39;;;;;;;;;;;;;;;;;;5056554;28;19916;-44
2022/05/10 00:57:04;;;;;;;;;;;;;;;;;;5057966;28;19966;-44
2022/05/10 00:59:29;;;;;;;;;;;;;;;;;;5057837;28;19967;-44
2022/05/10 01:01:54;;;;;;;;;;;;;;;;;;5057672;28;19909;-44
2022/05/10 01:04:20;;;;;;;;;;;;;;;;;;5057588;28;20307;-44
2022/05/10 01:06:46;;;;;;;;;;;;;;;;;;5058089;28;19913;-44
2022/05/10 01:09:11;;;;;;;;;;;;;;;;;;5057615;28;20263;-44
2022/05/10 01:11:36;;;;;;;;;;;;;;;;;;5057656;28;19991;-45
2022/05/10 01:14:01;;;;;;;;;;;;;;;;;;5057413;28;20276;-44
2022/05/10 01:16:26;;;;;;;;;;;;;;;;;;5057337;28;19909;-44
2022/05/10 01:18:51;;;;;;;;;;;;;;;;;;5057315;28;19913;-44
2022/05/10 01:21:16;;;;;;;;;;;;;;;;;;5057456;28;19909;-43
2022/05/10 01:23:42;;;;;;;;;;;;;;;;;;5057058;28;19916;-44
2022/05/10 01:26:07;;;;;;;;;;;;;;;;;;5057830;28;20367;-45
2022/05/10 01:28:32;;;;;;;;;;;;;;;;;;5057215;28;19909;-44
2022/05/10 01:30:57;;;;;;;;;;;;;;;;;;5053700;22;19925;-43
2022/05/10 01:33:31;;;;;;;;;;;;;;;;;;5037140;28;19963;-43
2022/05/10 01:35:56;;;;;;;;;;;;;;;;;;5037227;28;20365;-43
2022/05/10 01:38:21;;;;;;;;;;;;;;;;;;5036896;28;19909;-43
2022/05/10 01:40:46;;;;;;;;;;;;;;;;;;5036965;28;19964;-43
2022/05/10 01:43:11;;;;;;;;;;;;;;;;;;5036922;28;19913;-44
2022/05/10 01:45:37;;;;;;;;;;;;;;;;;;5036906;28;19954;-44
2022/05/10 01:48:02;;;;;;;;;;;;;;;;;;5034474;28;19966;-43
2022/05/10 01:50:27;;;;;;;;;;;;;;;;;;5036825;28;19916;-43
2022/05/10 01:52:52;;;;;;;;;;;;;;;;;;5036670;28;19913;-44
2022/05/10 01:55:17;;;;;;;;;;;;;;;;;;5047463;28;20368;-43
2022/05/10 01:57:42;;;;;;;;;;;;;;;;;;5055338;28;19913;-45
2022/05/10 02:00:07;;;;;;;;;;;;;;;;;;5056370;28;19920;-44
2022/05/10 02:02:32;;;;;;;;;;;;;;;;;;5056502;28;19915;-44
2022/05/10 02:04:57;;;;;;;;;;;;;;;;;;5055197;28;19936;-44
2022/05/10 02:07:23;;;;;;;;;;;;;;;;;;5056434;28;19912;-44
2022/05/10 02:09:48;;;;;;;;;;;;;;;;;;5056382;28;19909;-43
2022/05/10 02:12:13;;;;;;;;;;;;;;;;;;5056489;28;19912;-43
2022/05/10 02:14:38;;;;;;;;;;;;;;;;;;5055194;28;19916;-44
2022/05/10 02:17:04;;;;;;;;;;;;;;;;;;5056528;28;20279;-43
2022/05/10 02:19:29;;;;;;;;;;;;;;;;;;5055111;28;19917;-43
2022/05/10 02:21:54;;;;;;;;;;;;;;;;;;5056372;28;20241;-44
2022/05/10 02:24:19;;;;;;;;;;;;;;;;;;5055658;28;19909;-44
2022/05/10 02:26:44;;;;;;;;;;;;;;;;;;5056153;28;20011;-44
2022/05/10 02:29:09;;;;;;;;;;;;;;;;;;5055796;28;19917;-44
2022/05/10 02:33:06;;;;;;;;;;;;;;;;;;5055966;28;20436;-43
2022/05/10 02:34:19;;;;;;;;;;;;;;;;;;5056032;28;20378;-43
2022/05/10 02:36:44;;;;;;;;;;;;;;;;;;5055835;28;20003;-43
2022/05/10 02:39:09;;;;;;;;;;;;;;;;;;5055733;28;20000;-44
2022/05/10 02:41:34;;;;;;;;;;;;;;;;;;5055815;28;19992;-44
2022/05/10 02:44:00;;;;;;;;;;;;;;;;;;5055714;28;20015;-44
2022/05/10 02:46:25;;;;;;;;;;;;;;;;;;5055707;28;19996;-44
2022/05/10 02:48:50;;;;;;;;;;;;;;;;;;5055778;28;20352;-45
2022/05/10 02:51:15;;;;;;;;;;;;;;;;;;5055522;28;19927;-43
2022/05/10 02:53:40;;;;;;;;;;;;;;;;;;5055806;28;19932;-45
2022/05/10 02:56:05;;;;;;;;;;;;;;;;;;5055265;28;19912;-43
2022/05/10 02:58:31;;;;;;;;;;;;;;;;;;5055372;28;19915;-44
2022/05/10 03:00:56;;;;;;;;;;;;;;;;;;5055367;28;19916;-43
2022/05/10 03:03:21;;;;;;;;;;;;;;;;;;5055475;28;19947;-44
2022/05/10 03:05:46;;;;;;;;;;;;;;;;;;5055347;28;19943;-44
2022/05/10 03:08:11;;;;;;;;;;;;;;;;;;5055351;28;19948;-43
2022/05/10 03:10:36;;;;;;;;;;;;;;;;;;5055352;28;19991;-44
2022/05/10 03:13:01;;;;;;;;;;;;;;;;;;5055206;28;19920;-44
2022/05/10 03:15:27;;;;;;;;;;;;;;;;;;5055272;28;19915;-44
2022/05/10 03:17:52;;;;;;;;;;;;;;;;;;5055328;28;19909;-44
2022/05/10 03:20:17;;;;;;;;;;;;;;;;;;5054134;28;20287;-44
2022/05/10 03:22:42;;;;;;;;;;;;;;;;;;5055158;28;19909;-44
2022/05/10 03:25:07;;;;;;;;;;;;;;;;;;5054868;28;20019;-44
2022/05/10 03:27:34;;;;;;;;;;;;;;;;;;5055182;28;20328;-44
2022/05/10 03:29:59;;;;;;;;;;;;;;;;;;5055052;28;19995;-44
2022/05/10 03:32:25;;;;;;;;;;;;;;;;;;5055038;28;19948;-44
2022/05/10 03:34:57;;;;;;;;;;;;;;;;;;5055049;28;19947;-44
2022/05/10 03:37:22;;;;;;;;;;;;;;;;;;5054811;28;19916;-43
2022/05/10 03:39:48;;;;;;;;;;;;;;;;;;5054889;28;19913;-43
2022/05/10 03:42:13;;;;;;;;;;;;;;;;;;5054873;28;20368;-44
2022/05/10 03:44:38;;;;;;;;;;;;;;;;;;5054639;28;20272;-44
2022/05/10 03:47:03;;;;;;;;;;;;;;;;;;5054837;28;19919;-44
2022/05/10 03:49:28;;;;;;;;;;;;;;;;;;5054972;28;20054;-44
2022/05/10 03:51:54;;;;;;;;;;;;;;;;;;5054624;28;20375;-43
2022/05/10 03:54:19;;;;;;;;;;;;;;;;;;5054644;28;19938;-44
2022/05/10 03:56:44;;;;;;;;;;;;;;;;;;5054763;28;19912;-43
2022/05/10 03:59:09;;;;;;;;;;;;;;;;;;5054725;28;19912;-44
2022/05/10 04:01:34;;;;;;;;;;;;;;;;;;5054523;28;19913;-43
2022/05/10 04:03:59;;;;;;;;;;;;;;;;;;5054669;28;19909;-44
2022/05/10 04:06:24;;;;;;;;;;;;;;;;;;5054544;28;19909;-43
2022/05/10 04:08:49;;;;;;;;;;;;;;;;;;5054431;28;19916;-43
2022/05/10 04:11:15;;;;;;;;;;;;;;;;;;5055436;28;20375;-45
2022/05/10 04:13:40;;;;;;;;;;;;;;;;;;5057574;28;20276;-44
2022/05/10 04:16:05;;;;;;;;;;;;;;;;;;5058738;28;19909;-44
2022/05/10 04:18:30;;;;;;;;;;;;;;;;;;5058819;28;19908;-43
2022/05/10 04:20:55;;;;;;;;;;;;;;;;;;5058677;28;19909;-43
2022/05/10 04:23:20;;;;;;;;;;;;;;;;;;5058386;28;19909;-43
2022/05/10 04:25:45;;;;;;;;;;;;;;;;;;5056566;28;19913;-43
2022/05/10 04:28:10;;;;;;;;;;;;;;;;;;5058176;28;20364;-43
2022/05/10 04:30:35;;;;;;;;;;;;;;;;;;5058480;28;20302;-44
2022/05/10 04:33:00;;;;;;;;;;;;;;;;;;5057252;28;19919;-43
2022/05/10 04:35:26;;;;;;;;;;;;;;;;;;5058749;28;19916;-44
2022/05/10 04:37:51;;;;;;;;;;;;;;;;;;5058335;28;19920;-43
2022/05/10 04:43:00;;;;;;;;;;;;;;;;;;5058138;28;19962;-43
2022/05/10 04:45:25;;;;;;;;;;;;;;;;;;5057991;28;19913;-43
2022/05/10 04:47:50;;;;;;;;;;;;;;;;;;5058026;28;19908;-43
2022/05/10 04:50:15;;;;;;;;;;;;;;;;;;5057932;28;20249;-44
2022/05/10 04:52:40;;;;;;;;;;;;;;;;;;5057861;28;19954;-44
2022/05/10 04:55:05;;;;;;;;;;;;;;;;;;5057461;28;19912;-44
2022/05/10 04:57:30;;;;;;;;;;;;;;;;;;5057871;28;19932;-44
2022/05/10 04:59:55;;;;;;;;;;;;;;;;;;5057681;28;19913;-43
2022/05/10 05:02:20;;;;;;;;;;;;;;;;;;5057514;28;19909;-44
2022/05/10 05:04:46;;;;;;;;;;;;;;;;;;5058012;28;19909;-44
2022/05/10 05:07:11;;;;;;;;;;;;;;;;;;5057849;28;19909;-44
2022/05/10 05:09:36;;;;;;;;;;;;;;;;;;5057625;28;19909;-44
2022/05/10 05:12:01;;;;;;;;;;;;;;;;;;5057527;28;20334;-44
2022/05/10 05:14:26;;;;;;;;;;;;;;;;;;5057391;28;20368;-44
2022/05/10 05:16:54;;;;;;;;;;;;;;;;;;5057422;28;19912;-44
2022/05/10 05:19:19;;;;;;;;;;;;;;;;;;5057285;28;19913;-43
2022/05/10 05:21:44;;;;;;;;;;;;;;;;;;5057270;28;19908;-44
2022/05/10 05:24:11;;;;;;;;;;;;;;;;;;5050046;28;19913;-44
2022/05/10 05:26:36;;;;;;;;;;;;;;;;;;5043728;28;19988;-44
2022/05/10 05:29:01;;;;;;;;;;;;;;;;;;5043432;28;19920;-47
2022/05/10 05:31:26;;;;;;;;;;;;;;;;;;5047913;28;19921;-45
2022/05/10 05:33:51;;;;;;;;;;;;;;;;;;5050938;28;19913;-46
2022/05/10 05:36:16;;;;;;;;;;;;;;;;;;5052516;28;19920;-45
2022/05/10 05:38:41;;;;;;;;;;;;;;;;;;5050743;28;19913;-45
2022/05/10 05:41:07;;;;;;;;;;;;;;;;;;5052149;28;20349;-47
2022/05/10 05:43:32;;;;;;;;;;;;;;;;;;5058814;28;20284;-44
2022/05/10 05:45:57;;;;;;;;;;;;;;;;;;5054138;28;19924;-46
2022/05/10 05:48:23;;;;;;;;;;;;;;;;;;5043087;28;20007;-44
2022/05/10 05:50:48;;;;;;;;;;;;;;;;;;5046319;28;19936;-47
2022/05/10 05:53:13;;;;;;;;;;;;;;;;;;5042449;28;19928;-45
2022/05/10 05:55:38;;;;;;;;;;;;;;;;;;5038110;28;19916;-47
2022/05/10 05:58:03;;;;;;;;;;;;;;;;;;5039577;28;19928;-46
2022/05/10 06:00:28;;;;;;;;;;;;;;;;;;5020791;28;19924;-47
2022/05/10 06:02:53;;;;;;;;;;;;;;;;;;5030711;28;19972;-46
2022/05/10 06:05:18;;;;;;;;;;;;;;;;;;5032247;28;19921;-46
2022/05/10 06:07:44;;;;;;;;;;;;;;;;;;5031571;28;19921;-47
2022/05/10 06:10:09;;;;;;;;;;;;;;;;;;5018690;28;19945;-46
2022/05/10 06:12:34;;;;;;;;;;;;;;;;;;4994579;28;19921;-48
2022/05/10 06:14:59;;;;;;;;;;;;;;;;;;4966949;28;20414;-46
2022/05/10 06:17:25;;;;;;;;;;;;;;;;;;4963137;28;19954;-46
2022/05/10 06:19:50;;;;;;;;;;;;;;;;;;4922933;28;19929;-49
2022/05/10 06:22:15;;;;;;;;;;;;;;;;;;4811401;28;20206;-49
2022/05/10 06:24:40;;;;;;;;;;;;;;;;;;4736715;28;22179;-46
2022/05/10 06:27:05;;;;;;;;;;;;;;;;;;4681308;28;23917;-46
2022/05/10 06:29:30;;;;;;;;;;;;;;;;;;4653089;28;19928;-47
2022/05/10 06:31:55;;;;;;;;;;;;;;;;;;4751839;28;22255;-48
2022/05/10 06:34:20;;;;;;;;;;;;;;;;;;4847563;28;34852;-48
2022/05/10 06:36:46;;;;;;;;;;;;;;;;;;4899527;28;20978;-49
2022/05/10 06:39:11;;;;;;;;;;;;;;;;;;4866582;28;21742;-48
2022/05/10 06:41:36;;;;;;;;;;;;;;;;;;4839184;28;24330;-46
2022/05/10 06:44:01;;;;;;;;;;;;;;;;;;4912138;28;21952;-46
2022/05/10 06:46:27;;;;;;;;;;;;;;;;;;4928941;28;19921;-46
2022/05/10 06:48:52;;;;;;;;;;;;;;;;;;4909992;28;21657;-50
2022/05/10 06:51:17;;;;;;;;;;;;;;;;;;4885865;28;20625;-48
2022/05/10 06:53:42;;;;;;;;;;;;;;;;;;4863592;28;20590;-47
2022/05/10 06:56:08;;;;;;;;;;;;;;;;;;4862920;28;19927;-48
2022/05/10 06:58:33;;;;;;;;;;;;;;;;;;4784512;28;20656;-48
2022/05/10 07:00:58;;;;;;;;;;;;;;;;;;4753282;28;20574;-49
2022/05/10 07:03:23;;;;;;;;;;;;;;;;;;4713202;28;20813;-48
2022/05/10 07:05:48;;;;;;;;;;;;;;;;;;4651804;28;20530;-47
2022/05/10 07:08:14;;;;;;;;;;;;;;;;;;4506955;28;21624;-47
2022/05/10 07:10:39;;;;;;;;;;;;;;;;;;4452702;28;21199;-46
2022/05/10 07:13:04;;;;;;;;;;;;;;;;;;4423356;28;29442;-47
2022/05/10 07:15:30;;;;;;;;;;;;;;;;;;4571867;28;22541;-46
2022/05/10 07:17:55;;;;;;;;;;;;;;;;;;4689242;28;27588;-49
2022/05/10 07:20:20;;;;;;;;;;;;;;;;;;4752989;28;26289;-47
2022/05/10 07:22:45;;;;;;;;;;;;;;;;;;4789450;28;19932;-47
2022/05/10 07:25:13;;;;;;;;;;;;;;;;;;4801649;28;21019;-47
2022/05/10 07:27:39;;;;;;;;;;;;;;;;;;4815453;28;22387;-47
2022/05/10 07:30:04;;;;;;;;;;;;;;;;;;4822859;28;20019;-49
2022/05/10 07:32:29;;;;;;;;;;;;;;;;;;4744185;28;23187;-48
2022/05/10 07:34:55;;;;;;;;;;;;;;;;;;4734734;28;22421;-46
2022/05/10 07:37:20;;;;;;;;;;;;;;;;;;4722316;28;26496;-48
2022/05/10 07:39:45;;;;;;;;;;;;;;;;;;4752221;28;22327;-47
2022/05/10 07:42:10;;;;;;;;;;;;;;;;;;4760236;28;25192;-47
2022/05/10 07:44:35;;;;;;;;;;;;;;;;;;4765930;28;20024;-46
2022/05/10 07:47:00;;;;;;;;;;;;;;;;;;4714490;28;24813;-49
2022/05/10 07:49:25;;;;;;;;;;;;;;;;;;4681255;28;21260;-48
2022/05/10 07:51:51;;;;;;;;;;;;;;;;;;4572895;28;19921;-47
2022/05/10 07:54:16;;;;;;;;;;;;;;;;;;4537210;28;21499;-47
2022/05/10 07:56:41;;;;;;;;;;;;;;;;;;4606458;28;28862;-47
2022/05/10 07:59:06;;;;;;;;;;;;;;;;;;4683220;28;20293;-50
2022/05/10 08:01:32;;;;;;;;;;;;;;;;;;4667823;28;23479;-49
2022/05/10 08:03:57;;;;;;;;;;;;;;;;;;4670687;28;21207;-47
2022/05/10 08:06:22;;;;;;;;;;;;;;;;;;4703024;28;23563;-48
2022/05/10 08:08:47;;;;;;;;;;;;;;;;;;4611141;28;20995;-48
2022/05/10 08:11:12;;;;;;;;;;;;;;;;;;4545741;28;25458;-47
2022/05/10 08:13:37;;;;;;;;;;;;;;;;;;4593735;28;31979;-47
2022/05/10 08:16:02;;;;;;;;;;;;;;;;;;4658248;28;27579;-49
2022/05/10 08:18:28;;;;;;;;;;;;;;;;;;4698698;28;28059;-47
2022/05/10 08:20:53;;;;;;;;;;;;;;;;;;4762279;28;26933;-47
2022/05/10 08:23:18;;;;;;;;;;;;;;;;;;4772227;28;19921;-48
2022/05/10 08:25:43;;;;;;;;;;;;;;;;;;4782078;28;29547;-48
2022/05/10 08:28:13;;;;;;;;;;;;;;;;;;4790691;28;29288;-48
2022/05/10 08:30:38;;;;;;;;;;;;;;;;;;4791417;28;23393;-49
2022/05/10 08:33:03;;;;;;;;;;;;;;;;;;4797463;28;19929;-47
2022/05/10 08:35:28;;;;;;;;;;;;;;;;;;4791908;28;30916;-48
2022/05/10 08:37:54;;;;;;;;;;;;;;;;;;4711897;28;25952;-47
2022/05/10 08:40:19;;;;;;;;;;;;;;;;;;4749346;28;20948;-47
2022/05/10 08:42:44;;;;;;;;;;;;;;;;;;4758189;28;19982;-46
2022/05/10 08:45:09;;;;;;;;;;;;;;;;;;4720289;28;22645;-48
2022/05/10 08:47:34;;;;;;;;;;;;;;;;;;4708866;28;30895;-48
2022/05/10 08:49:59;;;;;;;;;;;;;;;;;;4677613;28;23433;-48
2022/05/10 08:52:24;;;;;;;;;;;;;;;;;;4541735;28;21391;-46
2022/05/10 08:54:50;;;;;;;;;;;;;;;;;;4403893;28;26748;-47
2022/05/10 08:57:15;;;;;;;;;;;;;;;;;;4439651;28;20906;-47
2022/05/10 08:59:40;;;;;;;;;;;;;;;;;;4667897;28;24990;-47
2022/05/10 09:02:05;;;;;;;;;;;;;;;;;;4663506;28;28707;-48
2022/05/10 09:04:30;;;;;;;;;;;;;;;;;;4713768;28;29267;-48
2022/05/10 09:06:55;;;;;;;;;;;;;;;;;;4743727;28;23182;-50
2022/05/10 09:09:20;;;;;;;;;;;;;;;;;;4775341;28;25034;-48
2022/05/10 09:11:46;;;;;;;;;;;;;;;;;;4768761;28;28086;-48
2022/05/10 09:14:11;;;;;;;;;;;;;;;;;;4750478;28;28012;-48
2022/05/10 09:16:36;;;;;;;;;;;;;;;;;;4740076;28;35449;-49
2022/05/10 09:19:01;;;;;;;;;;;;;;;;;;4747952;28;37241;-47
2022/05/10 09:21:26;;;;;;;;;;;;;;;;;;4756740;28;28794;-48
2022/05/10 09:23:52;;;;;;;;;;;;;;;;;;4738610;28;40096;-53
2022/05/10 09:26:17;;;;;;;;;;;;;;;;;;4736144;28;45252;-48
2022/05/10 09:28:44;;;;;;;;;;;;;;;;;;4730171;28;34412;-48
2022/05/10 09:36:37;;;;;;;;;;;;;;;;;;4705960;28;32576;-44
2022/05/10 09:39:02;;;;;;;;;;;;;;;;;;4721684;28;33106;-50
2022/05/10 09:41:27;;;;;;;;;;;;;;;;;;4732585;28;29102;-46
2022/05/10 09:43:53;;;;;;;;;;;;;;;;;;4763739;28;24692;-48
2022/05/10 09:46:18;;;;;;;;;;;;;;;;;;4807150;28;28764;-48
2022/05/10 09:48:43;;;;;;;;;;;;;;;;;;4760425;28;22942;-47
2022/05/10 09:51:08;;;;;;;;;;;;;;;;;;4714093;28;19921;-47
2022/05/10 09:53:33;;;;;;;;;;;;;;;;;;4608707;28;20448;-47
2022/05/10 09:55:58;;;;;;;;;;;;;;;;;;4550764;28;31906;-47
2022/05/10 09:58:23;;;;;;;;;;;;;;;;;;4627492;28;25126;-47
2022/05/10 10:00:52;;;;;;;;;;;;;;;;;;4670606;28;19931;-48
2022/05/10 10:03:17;;;;;;;;;;;;;;;;;;4724296;28;29580;-48
2022/05/10 10:05:42;;;;;;;;;;;;;;;;;;4690606;28;29908;-47
2022/05/10 10:08:07;;;;;;;;;;;;;;;;;;4710719;28;23475;-47
2022/05/10 10:10:32;;;;;;;;;;;;;;;;;;4684899;28;19968;-48
2022/05/10 10:12:58;;;;;;;;;;;;;;;;;;4617038;28;26179;-48
2022/05/10 10:15:24;;;;;;;;;;;;;;;;;;4724050;28;21388;-47
2022/05/10 10:17:49;;;;;;;;;;;;;;;;;;4755361;28;19921;-46
2022/05/10 10:20:14;;;;;;;;;;;;;;;;;;4803580;28;20005;-47
2022/05/10 10:22:39;;;;;;;;;;;;;;;;;;4786584;28;19921;-48
2022/05/10 10:25:05;;;;;;;;;;;;;;;;;;4761130;28;23207;-47
2022/05/10 10:27:30;;;;;;;;;;;;;;;;;;4756595;28;19959;-47
2022/05/10 10:29:55;;;;;;;;;;;;;;;;;;4754976;28;21719;-48
2022/05/10 10:32:20;;;;;;;;;;;;;;;;;;4741819;28;21381;-47
2022/05/10 10:34:45;;;;;;;;;;;;;;;;;;4668626;28;23832;-47
2022/05/10 10:37:10;;;;;;;;;;;;;;;;;;4622765;28;40645;-48
2022/05/10 10:39:36;;;;;;;;;;;;;;;;;;4547032;28;25504;-46
2022/05/10 10:42:01;;;;;;;;;;;;;;;;;;4540558;28;27205;-50
2022/05/10 10:44:26;;;;;;;;;;;;;;;;;;4670607;28;20234;-47
2022/05/10 10:46:51;;;;;;;;;;;;;;;;;;4704801;28;24658;-47
2022/05/10 10:49:16;;;;;;;;;;;;;;;;;;4702395;28;28078;-47
2022/05/10 10:51:42;;;;;;;;;;;;;;;;;;4687547;28;30946;-46
2022/05/10 10:54:07;;;;;;;;;;;;;;;;;;4720696;28;29325;-48
2022/05/10 10:56:33;;;;;;;;;;;;;;;;;;4772544;28;28199;-47
2022/05/10 10:58:58;;;;;;;;;;;;;;;;;;4738101;28;32550;-48
2022/05/10 11:01:23;;;;;;;;;;;;;;;;;;4756579;28;36281;-48
2022/05/10 11:03:48;;;;;;;;;;;;;;;;;;4788212;28;29854;-48
2022/05/10 11:06:14;;;;;;;;;;;;;;;;;;4803797;28;31949;-47
2022/05/10 11:08:39;;;;;;;;;;;;;;;;;;4715968;28;40345;-48
2022/05/10 11:11:04;;;;;;;;;;;;;;;;;;4767876;28;21819;-48
2022/05/10 11:13:29;;;;;;;;;;;;;;;;;;4705212;28;29246;-50
2022/05/10 11:15:54;;;;;;;;;;;;;;;;;;4725498;28;19921;-47
2022/05/10 11:18:19;;;;;;;;;;;;;;;;;;4715124;28;27910;-46
2022/05/10 11:20:44;;;;;;;;;;;;;;;;;;4671914;28;30843;-50
2022/05/10 11:23:10;;;;;;;;;;;;;;;;;;4661857;28;30864;-50
2022/05/10 11:25:35;;;;;;;;;;;;;;;;;;4734694;28;28575;-47
2022/05/10 11:28:01;;;;;;;;;;;;;;;;;;4746789;28;28829;-48
2022/05/10 11:30:26;;;;;;;;;;;;;;;;;;4650268;28;39634;-49
2022/05/10 11:32:51;;;;;;;;;;;;;;;;;;4727784;28;30779;-48
2022/05/10 11:35:16;;;;;;;;;;;;;;;;;;4722803;28;40316;-48
2022/05/10 11:37:41;;;;;;;;;;;;;;;;;;4781035;28;32331;-48
2022/05/10 11:40:06;;;;;;;;;;;;;;;;;;4760137;28;30437;-47
2022/05/10 11:42:35;;;;;;;;;;;;;;;;;;4764220;28;32603;-47
2022/05/10 11:45:00;;;;;;;;;;;;;;;;;;4730978;28;37975;-46
2022/05/10 11:47:25;;;;;;;;;;;;;;;;;;4746594;28;34657;-49
2022/05/10 11:49:50;;;;;;;;;;;;;;;;;;4748837;28;31439;-47
2022/05/10 11:52:15;;;;;;;;;;;;;;;;;;4754058;28;34245;-46
2022/05/10 11:54:41;;;;;;;;;;;;;;;;;;4714652;28;39931;-49
2022/05/10 11:57:06;;;;;;;;;;;;;;;;;;4647922;28;25457;-49
2022/05/10 11:59:32;;;;;;;;;;;;;;;;;;4584364;28;19925;-48
2022/05/10 12:01:57;;;;;;;;;;;;;;;;;;4658393;28;27592;-47
2022/05/10 12:04:22;;;;;;;;;;;;;;;;;;4779262;28;20002;-48
2022/05/10 12:06:47;;;;;;;;;;;;;;;;;;4817108;28;22722;-47
2022/05/10 12:09:12;;;;;;;;;;;;;;;;;;4906174;28;19958;-47
2022/05/10 12:11:38;;;;;;;;;;;;;;;;;;4942641;28;20097;-47
2022/05/10 12:22:14;;;;;;;;;;;;;;;;;;4996039;28;19963;-47
2022/05/10 12:24:44;;;;;;;;;;;;;;;;;;4996072;28;20596;-47
2022/05/10 12:27:10;;;;;;;;;;;;;;;;;;4980052;28;19928;-47
2022/05/10 12:29:35;;;;;;;;;;;;;;;;;;4977825;28;19921;-48
2022/05/10 12:32:01;;;;;;;;;;;;;;;;;;4990630;28;19929;-47
2022/05/10 12:34:26;;;;;;;;;;;;;;;;;;4913686;28;20024;-47
2022/05/10 12:36:51;;;;;;;;;;;;;;;;;;4949668;28;25807;-47
2022/05/10 12:39:17;;;;;;;;;;;;;;;;;;4938655;28;19992;-48
2022/05/10 12:41:42;;;;;;;;;;;;;;;;;;4953396;28;20047;-47
2022/05/10 12:44:07;;;;;;;;;;;;;;;;;;4957530;28;20348;-46
2022/05/10 12:46:32;;;;;;;;;;;;;;;;;;4991226;28;21868;-47
2022/05/10 12:48:58;;;;;;;;;;;;;;;;;;5012707;28;19936;-47
2022/05/10 12:51:23;;;;;;;;;;;;;;;;;;5024528;28;19921;-48
2022/05/10 12:53:48;;;;;;;;;;;;;;;;;;5014337;28;20034;-47
2022/05/10 12:56:13;;;;;;;;;;;;;;;;;;5009937;28;19967;-48
2022/05/10 12:58:39;;;;;;;;;;;;;;;;;;4991044;28;19916;-48
2022/05/10 13:01:04;;;;;;;;;;;;;;;;;;4993975;28;19925;-47
2022/05/10 13:03:29;;;;;;;;;;;;;;;;;;5006716;28;19921;-49
2022/05/10 13:05:57;;;;;;;;;;;;;;;;;;5009623;28;19982;-49
2022/05/10 13:08:22;;;;;;;;;;;;;;;;;;5012026;28;19959;-50
2022/05/10 13:10:47;;;;;;;;;;;;;;;;;;5002815;28;20450;-46
2022/05/10 13:13:12;;;;;;;;;;;;;;;;;;4979584;28;19989;-47
2022/05/10 13:15:37;;;;;;;;;;;;;;;;;;4983974;28;19927;-46
2022/05/10 13:18:02;;;;;;;;;;;;;;;;;;5000923;28;19928;-47
2022/05/10 13:20:27;;;;;;;;;;;;;;;;;;4993334;28;19963;-47
2022/05/10 13:22:53;;;;;;;;;;;;;;;;;;5016854;28;20191;-47
2022/05/10 13:25:18;;;;;;;;;;;;;;;;;;5021843;28;20557;-46
2022/05/10 13:27:45;;;;;;;;;;;;;;;;;;5008205;28;19916;-47
2022/05/10 13:30:10;;;;;;;;;;;;;;;;;;5033088;22;20347;-47
2022/05/10 13:32:36;;;;;;;;;;;;;;;;;;5034124;28;19960;-48
2022/05/10 13:35:01;;;;;;;;;;;;;;;;;;5031990;28;19986;-47
2022/05/10 13:37:29;;;;;;;;;;;;;;;;;;5029620;28;19999;-48
2022/05/10 13:39:54;;;;;;;;;;;;;;;;;;5028012;28;19925;-47
2022/05/10 13:42:19;;;;;;;;;;;;;;;;;;5030143;28;20031;-47
2022/05/10 13:44:44;;;;;;;;;;;;;;;;;;5026885;28;19920;-47
2022/05/10 13:47:09;;;;;;;;;;;;;;;;;;5042278;28;20421;-48
2022/05/10 13:49:35;;;;;;;;;;;;;;;;;;5039066;28;19924;-47
2022/05/10 13:52:00;;;;;;;;;;;;;;;;;;5041696;28;19920;-48
2022/05/10 13:54:25;;;;;;;;;;;;;;;;;;5037979;28;19916;-48
2022/05/10 13:56:51;;;;;;;;;;;;;;;;;;5039949;28;19950;-47
2022/05/10 13:59:16;;;;;;;;;;;;;;;;;;5051841;28;19983;-49
2022/05/10 14:01:41;;;;;;;;;;;;;;;;;;5037172;28;19970;-48
2022/05/10 14:04:06;;;;;;;;;;;;;;;;;;5062627;28;19999;-49
2022/05/10 14:06:33;;;;;;;;;;;;;;;;;;5053229;28;19921;-50
2022/05/10 14:08:58;;;;;;;;;;;;;;;;;;5059928;28;19967;-47
2022/05/10 14:11:23;;;;;;;;;;;;;;;;;;5054932;28;20322;-48
2022/05/10 14:13:49;;;;;;;;;;;;;;;;;;5054956;28;19912;-48
2022/05/10 14:16:14;;;;;;;;;;;;;;;;;;5043590;28;19935;-46
2022/05/10 14:18:39;;;;;;;;;;;;;;;;;;5058488;28;20021;-49
2022/05/10 14:21:04;;;;;;;;;;;;;;;;;;5055391;28;20023;-48
2022/05/10 14:23:29;;;;;;;;;;;;;;;;;;5061604;28;19920;-48
2022/05/10 14:25:54;;;;;;;;;;;;;;;;;;5063878;28;19912;-48
2022/05/10 14:28:19;;;;;;;;;;;;;;;;;;5058314;28;19913;-48
2022/05/10 14:30:46;;;;;;;;;;;;;;;;;;5067440;28;19928;-47
2022/05/10 14:33:13;;;;;;;;;;;;;;;;;;5068570;28;19993;-48
2022/05/10 14:35:38;;;;;;;;;;;;;;;;;;5064213;28;20066;-46
2022/05/10 14:38:04;;;;;;;;;;;;;;;;;;5063683;28;20369;-47
2022/05/10 14:40:29;;;;;;;;;;;;;;;;;;5063480;28;20320;-48
2022/05/10 14:42:54;;;;;;;;;;;;;;;;;;5059945;28;19962;-47
2022/05/10 14:45:20;;;;;;;;;;;;;;;;;;5063975;28;20420;-47
2022/05/10 14:47:45;;;;;;;;;;;;;;;;;;5058354;28;19924;-47
2022/05/10 14:50:10;;;;;;;;;;;;;;;;;;5064521;28;20343;-47
2022/05/10 14:52:37;;;;;;;;;;;;;;;;;;5065849;28;19958;-48
2022/05/10 14:55:02;;;;;;;;;;;;;;;;;;5057484;28;19916;-48
2022/05/10 14:57:27;;;;;;;;;;;;;;;;;;5063512;28;19921;-47
2022/05/10 14:59:53;;;;;;;;;;;;;;;;;;5058104;28;19951;-48
2022/05/10 15:02:18;;;;;;;;;;;;;;;;;;5063463;28;20636;-47
2022/05/10 15:04:44;;;;;;;;;;;;;;;;;;5060456;28;20347;-47
2022/05/10 15:07:09;;;;;;;;;;;;;;;;;;5059880;28;19920;-47
2022/05/10 15:09:34;;;;;;;;;;;;;;;;;;5061909;28;19958;-49
2022/05/10 15:14:43;;;;;;;;;;;;;;;;;;5067080;28;20421;-47
2022/05/10 15:17:08;;;;;;;;;;;;;;;;;;5049391;28;19916;-47
2022/05/10 15:19:33;;;;;;;;;;;;;;;;;;5068452;28;19916;-47
2022/05/10 15:21:59;;;;;;;;;;;;;;;;;;5065735;28;19919;-47
2022/05/10 15:24:24;;;;;;;;;;;;;;;;;;5067369;28;19920;-48
2022/05/10 15:26:49;;;;;;;;;;;;;;;;;;5071800;28;19919;-47
2022/05/10 15:29:14;;;;;;;;;;;;;;;;;;5067946;28;20019;-47
2022/05/10 15:31:41;;;;;;;;;;;;;;;;;;5064592;28;19990;-49
2022/05/10 15:34:42;;;;;;;;;;;;;;;;;;5069739;28;19920;-46
2022/05/10 15:36:52;;;;;;;;;;;;;;;;;;5070418;28;20340;-46
2022/05/10 15:39:17;;;;;;;;;;;;;;;;;;5074798;28;20003;-46
2022/05/10 15:41:42;;;;;;;;;;;;;;;;;;5072632;28;20433;-47
2022/05/10 15:44:07;;;;;;;;;;;;;;;;;;5063194;28;19917;-47
2022/05/10 15:46:32;;;;;;;;;;;;;;;;;;5065309;28;19948;-47
2022/05/10 15:48:59;;;;;;;;;;;;;;;;;;5070220;28;19917;-47
2022/05/10 15:51:24;;;;;;;;;;;;;;;;;;5069998;28;19935;-47
2022/05/10 15:53:49;;;;;;;;;;;;;;;;;;5067715;28;19913;-47
2022/05/10 15:56:14;;;;;;;;;;;;;;;;;;5067916;28;19921;-47
2022/05/10 15:58:39;;;;;;;;;;;;;;;;;;5066230;28;19913;-48
2022/05/10 16:01:05;;;;;;;;;;;;;;;;;;5066307;28;19917;-48
2022/05/10 16:03:30;;;;;;;;;;;;;;;;;;5060754;28;19920;-47
2022/05/10 16:05:55;;;;;;;;;;;;;;;;;;5069203;28;19989;-48
2022/05/10 16:08:20;;;;;;;;;;;;;;;;;;5070862;28;19936;-47
2022/05/10 16:10:47;;;;;;;;;;;;;;;;;;5064662;28;19913;-44
2022/05/10 16:13:12;;;;;;;;;;;;;;;;;;5069627;28;20033;-44
2022/05/10 16:15:38;;;;;;;;;;;;;;;;;;5067356;28;20011;-43
2022/05/10 16:18:03;;;;;;;;;;;;;;;;;;5066811;28;19913;-44
2022/05/10 16:20:29;;;;;;;;;;;;;;;;;;5069915;28;20352;-48
2022/05/10 16:22:54;;;;;;;;;;;;;;;;;;5074701;28;19920;-47
2022/05/10 16:25:19;;;;;;;;;;;;;;;;;;5074837;28;19912;-46
2022/05/10 16:30:30;;;;;;;;;;;;;;;;;;5069016;28;19966;-49
2022/05/10 16:32:55;;;;;;;;;;;;;;;;;;5074267;28;19916;-49
2022/05/10 16:35:21;;;;;;;;;;;;;;;;;;5065214;28;21553;-49
2022/05/10 16:37:46;;;;;;;;;;;;;;;;;;5070941;28;19912;-48
2022/05/10 16:40:11;;;;;;;;;;;;;;;;;;5065739;28;19966;-48
2022/05/10 16:42:36;;;;;;;;;;;;;;;;;;5067889;28;19912;-46
2022/05/10 16:45:01;;;;;;;;;;;;;;;;;;5070024;28;19912;-51
2022/05/10 16:47:26;;;;;;;;;;;;;;;;;;5069024;28;19916;-47
2022/05/10 16:49:51;;;;;;;;;;;;;;;;;;5063699;28;19971;-49
2022/05/10 16:52:17;;;;;;;;;;;;;;;;;;5059217;28;19912;-47
2022/05/10 16:54:43;;;;;;;;;;;;;;;;;;5071904;28;20003;-49